createdAt,value
2023-02-13T00:01:02.785Z,52.03
2023-02-13T00:03:30.234Z,52.03
2023-02-13T00:05:57.609Z,53.63
2023-02-13T00:08:24.843Z,53.13
2023-02-13T00:10:52.093Z,49.88
2023-02-13T00:13:19.363Z,49.78
2023-02-13T00:15:46.630Z,52.47
2023-02-13T00:18:13.942Z,53.85
2023-02-13T00:20:41.322Z,55.67
2023-02-13T00:23:08.822Z,52.13
2023-02-13T00:25:36.397Z,53.00
2023-02-13T00:28:03.993Z,54.22
2023-02-13T00:30:31.429Z,50.13
2023-02-13T00:32:58.951Z,56.67
2023-02-13T00:35:26.344Z,56.70
2023-02-13T00:37:53.726Z,60.72
2023-02-13T00:40:25.351Z,58.60
2023-02-13T00:42:52.647Z,56.30
2023-02-13T00:45:20.024Z,62.33
2023-02-13T00:47:47.746Z,57.33
2023-02-13T00:50:14.977Z,60.42
2023-02-13T00:52:42.275Z,57.08
2023-02-13T00:55:09.481Z,57.58
2023-02-13T00:57:37.292Z,61.95
2023-02-13T01:00:04.789Z,59.10
2023-02-13T01:02:36.172Z,55.70
2023-02-13T01:05:03.652Z,57.15
2023-02-13T01:07:30.952Z,60.25
2023-02-13T01:09:58.195Z,55.03
2023-02-13T01:12:27.612Z,56.15
2023-02-13T01:14:54.890Z,54.25
2023-02-13T01:17:22.120Z,56.90
2023-02-13T01:19:49.377Z,61.22
2023-02-13T01:22:16.596Z,57.50
2023-02-13T01:24:43.947Z,61.00
2023-02-13T01:27:11.188Z,60.70
2023-02-13T01:29:38.823Z,57.35
2023-02-13T01:32:06.336Z,57.10
2023-02-13T01:34:34.635Z,55.83
2023-02-13T01:37:01.934Z,55.97
2023-02-13T01:39:29.186Z,56.95
2023-02-13T01:41:57.073Z,57.42
2023-02-13T01:44:43.082Z,59.33
2023-02-13T01:47:11.401Z,57.85
2023-02-13T01:49:38.966Z,62.65
2023-02-13T01:52:06.193Z,60.00
2023-02-13T01:54:35.282Z,61.05
2023-02-13T01:57:06.542Z,59.40
2023-02-13T01:59:54.032Z,56.95
2023-02-13T02:02:21.928Z,60.40
2023-02-13T02:04:49.456Z,58.05
2023-02-13T02:07:22.044Z,57.45
2023-02-13T02:09:50.562Z,60.22
2023-02-13T02:12:30.008Z,61.10
2023-02-13T02:14:59.045Z,58.35
2023-02-13T02:17:29.968Z,57.08
2023-02-13T02:20:00.723Z,60.00
2023-02-13T02:22:35.762Z,59.72
2023-02-13T02:25:06.254Z,61.53
2023-02-13T02:27:55.411Z,58.80
2023-02-13T02:30:31.145Z,57.00
2023-02-13T02:33:05.055Z,56.53
2023-02-13T02:35:51.122Z,61.75
2023-02-13T02:38:27.157Z,59.10
2023-02-13T02:41:38.684Z,60.67
2023-02-13T02:44:13.391Z,60.47
2023-02-13T02:47:10.681Z,58.10
2023-02-13T02:49:58.258Z,55.72
2023-02-13T02:52:31.283Z,61.08
2023-02-13T02:55:08.499Z,63.75
2023-02-13T02:58:24.368Z,56.17
2023-02-13T03:01:11.458Z,63.78
2023-02-13T03:03:58.181Z,58.88
2023-02-13T03:06:28.771Z,59.42
2023-02-13T03:09:20.527Z,62.25
2023-02-13T03:12:09.503Z,60.05
2023-02-13T03:14:36.864Z,61.15
2023-02-13T03:17:23.327Z,60.28
2023-02-13T03:20:17.300Z,63.47
2023-02-13T03:22:58.659Z,58.08
2023-02-13T03:25:52.420Z,61.85
2023-02-13T03:28:41.196Z,61.10
2023-02-13T03:31:34.668Z,67.45
2023-02-13T03:34:16.290Z,61.08
2023-02-13T03:37:11.185Z,57.97
2023-02-13T03:39:58.624Z,62.05
2023-02-13T03:42:25.886Z,57.03
2023-02-13T03:45:18.562Z,64.30
2023-02-13T03:47:46.200Z,57.78
2023-02-13T03:50:14.615Z,57.63
2023-02-13T03:52:53.168Z,56.73
2023-02-13T03:55:41.781Z,53.22
2023-02-13T03:58:33.418Z,59.90
2023-02-13T04:01:02.789Z,59.03
2023-02-13T04:06:01.613Z,57.63
2023-02-13T04:08:29.014Z,54.47
2023-02-13T04:11:00.419Z,53.42
2023-02-13T04:13:31.968Z,53.38
2023-02-13T04:16:03.775Z,57.72
2023-02-13T04:18:32.403Z,49.03
2023-02-13T04:21:04.383Z,49.90
2023-02-13T04:23:31.975Z,57.92
2023-02-13T04:26:01.318Z,57.83
2023-02-13T04:28:28.985Z,56.42
2023-02-13T04:30:57.644Z,52.85
2023-02-13T04:33:25.354Z,56.28
2023-02-13T04:35:52.829Z,53.22
2023-02-13T04:38:20.347Z,55.55
2023-02-13T04:40:47.785Z,50.50
2023-02-13T04:43:15.272Z,49.65
2023-02-13T04:45:42.668Z,52.67
2023-02-13T04:48:10.181Z,49.63
2023-02-13T04:50:37.414Z,55.25
2023-02-13T04:53:04.626Z,55.05
2023-02-13T04:55:31.903Z,54.38
2023-02-13T04:57:59.180Z,55.17
2023-02-13T05:00:27.306Z,55.67
2023-02-13T05:02:54.900Z,45.40
2023-02-13T05:05:22.343Z,52.22
2023-02-13T05:07:49.576Z,51.70
2023-02-13T05:10:16.909Z,49.80
2023-02-13T05:12:44.133Z,51.63
2023-02-13T05:15:11.747Z,48.10
2023-02-13T05:17:38.932Z,52.97
2023-02-13T05:20:06.900Z,50.85
2023-02-13T05:22:52.584Z,44.90
2023-02-13T05:25:19.958Z,48.47
2023-02-13T05:27:47.345Z,48.13
2023-02-13T05:30:15.038Z,41.90
2023-02-13T05:32:43.421Z,45.08
2023-02-13T05:35:10.822Z,50.47
2023-02-13T05:37:38.069Z,51.78
2023-02-13T05:40:05.601Z,49.78
2023-02-13T05:42:33.045Z,47.72
2023-02-13T05:45:00.403Z,47.22
2023-02-13T05:47:27.725Z,47.95
2023-02-13T05:49:54.954Z,44.47
2023-02-13T05:52:22.305Z,47.70
2023-02-13T05:54:49.642Z,44.42
2023-02-13T05:57:16.898Z,50.28
2023-02-13T05:59:44.235Z,48.22
2023-02-13T06:02:11.527Z,47.70
2023-02-13T06:04:39.619Z,50.90
2023-02-13T06:07:06.851Z,49.60
2023-02-13T06:09:34.311Z,47.63
2023-02-13T06:12:01.638Z,48.80
2023-02-13T06:14:28.855Z,48.45
2023-02-13T06:16:56.218Z,45.58
2023-02-13T06:19:23.590Z,45.53
2023-02-13T06:21:50.877Z,64.65
2023-02-13T06:24:18.249Z,53.67
2023-02-13T06:26:45.535Z,51.30
2023-02-13T06:29:12.936Z,54.83
2023-02-13T06:31:40.256Z,51.67
2023-02-13T06:34:08.132Z,47.00
2023-02-13T06:36:37.554Z,52.55
2023-02-13T06:39:05.210Z,50.47
2023-02-13T06:41:32.515Z,54.25
2023-02-13T06:43:59.815Z,48.28
2023-02-13T06:46:27.237Z,48.08
2023-02-13T06:48:55.122Z,54.70
2023-02-13T06:51:22.346Z,41.50
2023-02-13T06:53:49.845Z,52.00
2023-02-13T06:56:17.220Z,43.83
2023-02-13T06:58:45.780Z,48.17
2023-02-13T07:01:12.989Z,44.55
2023-02-13T07:03:40.363Z,48.25
2023-02-13T07:06:07.825Z,44.50
2023-02-13T07:08:34.991Z,41.92
2023-02-13T07:11:02.477Z,47.03
2023-02-13T07:13:29.897Z,47.08
2023-02-13T07:16:01.494Z,47.25
2023-02-13T07:18:29.625Z,49.92
2023-02-13T07:20:58.769Z,45.72
2023-02-13T07:23:26.137Z,51.85
2023-02-13T07:25:53.506Z,45.85
2023-02-13T07:28:20.765Z,46.45
2023-02-13T07:30:48.082Z,44.38
2023-02-13T07:33:15.344Z,47.53
2023-02-13T07:35:47.416Z,52.42
2023-02-13T07:38:14.970Z,51.47
2023-02-13T07:40:42.602Z,51.50
2023-02-13T07:43:09.988Z,45.55
2023-02-13T07:45:37.403Z,49.13
2023-02-13T07:48:04.703Z,44.03
2023-02-13T07:50:32.472Z,49.55
2023-02-13T07:53:01.224Z,46.30
2023-02-13T07:55:29.602Z,46.17
2023-02-13T07:57:57.709Z,46.17
2023-02-13T08:00:25.063Z,48.22
2023-02-13T08:02:52.456Z,53.60
2023-02-13T08:05:19.685Z,49.95
2023-02-13T08:07:46.996Z,52.65
2023-02-13T08:10:33.250Z,48.38
2023-02-13T08:13:01.076Z,49.78
2023-02-13T08:15:28.351Z,48.63
2023-02-13T08:17:55.572Z,48.17
2023-02-13T08:20:24.043Z,52.83
2023-02-13T08:22:51.527Z,52.97
2023-02-13T08:25:19.667Z,43.38
2023-02-13T08:27:48.921Z,51.60
2023-02-13T08:30:16.758Z,49.67
2023-02-13T08:32:53.831Z,48.95
2023-02-13T08:35:22.676Z,47.53
2023-02-13T08:37:49.993Z,46.75
2023-02-13T08:40:17.377Z,46.65
2023-02-13T08:42:44.688Z,47.53
2023-02-13T08:45:12.096Z,50.88
2023-02-13T08:47:40.079Z,47.00
2023-02-13T08:50:07.740Z,43.10
2023-02-13T08:52:35.161Z,47.75
2023-02-13T08:55:03.630Z,50.35
2023-02-13T08:57:31.524Z,50.38
2023-02-13T08:59:58.877Z,50.70
2023-02-13T09:02:26.244Z,45.53
2023-02-13T09:04:53.595Z,56.67
2023-02-13T09:07:20.874Z,53.20
2023-02-13T09:09:48.225Z,49.38
2023-02-13T09:12:15.466Z,50.05
2023-02-13T09:14:42.818Z,46.20
2023-02-13T09:17:10.438Z,52.88
2023-02-13T09:19:37.720Z,48.10
2023-02-13T09:22:04.981Z,51.17
2023-02-13T09:24:32.384Z,54.70
2023-02-13T09:26:59.691Z,51.72
2023-02-13T09:29:31.310Z,52.83
2023-02-13T09:31:58.712Z,51.35
2023-02-13T09:34:26.643Z,54.35
2023-02-13T09:36:54.416Z,47.25
2023-02-13T09:39:21.613Z,49.67
2023-02-13T09:41:50.778Z,53.50
2023-02-13T09:47:10.784Z,54.70
2023-02-13T09:49:39.944Z,45.92
2023-02-13T09:52:09.760Z,46.15
2023-02-13T09:54:37.046Z,47.47
2023-02-13T09:57:07.201Z,56.10
2023-02-13T09:59:46.802Z,47.38
2023-02-13T10:02:23.031Z,45.80
2023-02-13T10:04:57.318Z,51.53
2023-02-13T10:07:46.610Z,47.20
2023-02-13T10:12:59.555Z,42.33
2023-02-13T10:15:36.082Z,44.17
2023-02-13T10:18:09.901Z,40.05
2023-02-13T10:20:47.708Z,36.22
2023-02-13T10:23:33.533Z,39.22
2023-02-13T10:26:10.166Z,36.83
2023-02-13T10:28:37.512Z,35.05
2023-02-13T10:31:13.529Z,36.22
2023-02-13T10:33:51.045Z,32.95
2023-02-13T10:36:38.614Z,38.10
2023-02-13T10:39:05.906Z,35.88
2023-02-13T10:41:33.134Z,34.42
2023-02-13T10:44:19.578Z,37.53
2023-02-13T10:47:07.089Z,37.10
2023-02-13T10:49:37.178Z,36.25
2023-02-13T10:52:22.984Z,36.17
2023-02-13T10:55:06.437Z,35.22
2023-02-13T10:58:03.185Z,35.50
2023-02-13T11:00:47.476Z,34.47
2023-02-13T11:03:19.496Z,36.90
2023-02-13T11:05:47.246Z,34.55
2023-02-13T11:08:24.766Z,36.60
2023-02-13T11:10:52.380Z,34.92
2023-02-13T11:13:22.863Z,36.22
2023-02-13T11:16:02.718Z,37.45
2023-02-13T11:18:32.125Z,33.40
2023-02-13T11:23:32.532Z,33.85
2023-02-13T11:26:10.192Z,30.13
2023-02-13T11:28:39.328Z,30.00
2023-02-13T11:31:15.093Z,32.03
2023-02-13T11:33:42.562Z,32.03
2023-02-13T11:36:29.857Z,26.95
2023-02-13T11:38:58.604Z,31.58
2023-02-13T11:41:26.674Z,28.25
2023-02-13T11:44:01.012Z,29.53
2023-02-13T11:46:29.802Z,29.80
2023-02-13T11:48:58.401Z,27.40
2023-02-13T11:51:43.635Z,27.88
2023-02-13T11:54:29.769Z,28.02
2023-02-13T11:57:04.705Z,28.33
2023-02-13T11:59:34.250Z,28.25
2023-02-13T12:02:21.013Z,25.90
2023-02-13T12:04:49.759Z,23.25
2023-02-13T12:07:22.097Z,25.73
2023-02-13T12:10:02.621Z,26.38
2023-02-13T12:12:33.809Z,29.23
2023-02-13T12:15:03.415Z,26.42
2023-02-13T12:17:32.518Z,28.17
2023-02-13T12:20:00.426Z,26.25
2023-02-13T12:22:36.926Z,29.15
2023-02-13T12:25:23.793Z,25.95
2023-02-13T12:27:51.012Z,25.50
2023-02-13T12:30:36.581Z,28.88
2023-02-13T12:33:16.550Z,29.85
2023-02-13T12:35:57.830Z,26.13
2023-02-13T12:38:47.852Z,28.52
2023-02-13T12:41:20.779Z,30.33
2023-02-13T12:44:03.514Z,27.40
2023-02-13T12:46:34.910Z,27.52
2023-02-13T12:49:21.165Z,26.83
2023-02-13T12:51:54.251Z,25.50
2023-02-13T12:54:39.976Z,24.60
2023-02-13T12:57:07.272Z,24.42
2023-02-13T12:59:43.863Z,25.45
2023-02-13T13:02:29.725Z,26.35
2023-02-13T13:05:06.240Z,28.15
2023-02-13T13:07:38.081Z,25.35
2023-02-13T13:10:14.773Z,26.80
2023-02-13T13:12:46.542Z,26.63
2023-02-13T13:15:21.414Z,24.63
2023-02-13T13:18:07.432Z,29.65
2023-02-13T13:20:34.869Z,24.92
2023-02-13T13:23:05.476Z,24.30
2023-02-13T13:25:32.926Z,25.65
2023-02-13T13:28:03.296Z,26.77
2023-02-13T13:30:35.847Z,24.98
2023-02-13T13:33:05.622Z,24.80
2023-02-13T13:35:33.943Z,24.20
2023-02-13T13:38:17.499Z,28.40
2023-02-13T13:40:47.668Z,21.00
2023-02-13T13:43:18.957Z,21.65
2023-02-13T13:46:02.591Z,23.02
2023-02-13T13:48:38.797Z,27.05
2023-02-13T13:51:07.754Z,25.50
2023-02-13T13:53:36.084Z,23.60
2023-02-13T13:56:09.414Z,23.92
2023-02-13T13:58:42.820Z,24.05
2023-02-13T14:01:29.616Z,26.98
2023-02-13T14:04:03.500Z,25.58
2023-02-13T14:06:46.197Z,26.15
2023-02-13T14:09:33.772Z,24.58
2023-02-13T14:12:21.063Z,23.05
2023-02-13T14:14:48.475Z,27.05
2023-02-13T14:17:16.800Z,24.52
2023-02-13T14:19:46.829Z,24.87
2023-02-13T14:22:20.298Z,24.98
2023-02-13T14:24:58.053Z,24.48
2023-02-13T14:27:32.766Z,24.85
2023-02-13T14:30:00.731Z,27.10
2023-02-13T14:32:36.500Z,24.10
2023-02-13T14:35:06.934Z,26.98
2023-02-13T14:37:40.219Z,27.40
2023-02-13T14:40:12.053Z,25.10
2023-02-13T14:42:40.092Z,26.90
2023-02-13T14:45:14.002Z,27.45
2023-02-13T14:47:45.912Z,30.48
2023-02-13T14:50:18.518Z,26.33
2023-02-13T14:52:47.338Z,26.10
2023-02-13T14:55:33.131Z,27.30
2023-02-13T14:58:08.033Z,28.70
2023-02-13T15:00:35.272Z,25.88
2023-02-13T15:03:25.163Z,27.00
2023-02-13T15:05:53.962Z,31.23
2023-02-13T15:08:26.827Z,30.13
2023-02-13T15:10:55.480Z,24.17
2023-02-13T15:13:24.103Z,30.92
2023-02-13T15:15:53.219Z,31.88
2023-02-13T15:18:21.739Z,30.40
2023-02-13T15:20:49.194Z,31.67
2023-02-13T15:23:20.761Z,31.05
2023-02-13T15:25:50.735Z,30.13
2023-02-13T15:28:20.286Z,31.77
2023-02-13T15:30:54.662Z,28.58
2023-02-13T15:33:22.652Z,31.88
2023-02-13T15:35:57.024Z,27.00
2023-02-13T15:38:26.193Z,27.95
2023-02-13T15:40:55.518Z,29.65
2023-02-13T15:43:24.675Z,47.35
2023-02-13T15:45:51.965Z,28.02
2023-02-13T15:48:19.244Z,33.53
2023-02-13T15:50:47.752Z,29.10
2023-02-13T15:53:16.904Z,32.53
2023-02-13T15:55:55.915Z,27.63
2023-02-13T15:58:26.178Z,25.05
2023-02-13T16:00:53.626Z,28.52
2023-02-13T16:03:21.305Z,35.13
2023-02-13T16:05:48.685Z,32.88
2023-02-13T16:08:28.549Z,32.97
2023-02-13T16:11:14.483Z,35.55
2023-02-13T16:13:41.765Z,33.28
2023-02-13T16:16:10.819Z,31.73
2023-02-13T16:18:38.155Z,30.95
2023-02-13T16:21:07.078Z,26.05
2023-02-13T16:23:34.303Z,31.00
2023-02-13T16:26:03.319Z,30.40
2023-02-13T16:28:32.657Z,35.10
2023-02-13T16:33:32.022Z,30.67
2023-02-13T16:36:00.696Z,30.13
2023-02-13T16:38:37.217Z,30.30
2023-02-13T16:41:19.595Z,33.90
2023-02-13T16:43:46.995Z,32.30
2023-02-13T16:46:20.273Z,31.63
2023-02-13T16:48:49.376Z,37.53
2023-02-13T16:51:17.471Z,34.63
2023-02-13T16:53:44.718Z,33.08
2023-02-13T16:56:12.142Z,34.75
2023-02-13T16:58:39.454Z,41.08
2023-02-13T17:01:07.091Z,33.25
2023-02-13T17:03:34.878Z,36.15
2023-02-13T17:06:02.784Z,37.22
2023-02-13T17:08:31.547Z,37.28
2023-02-13T17:11:03.706Z,33.25
2023-02-13T17:13:31.240Z,33.70
2023-02-13T17:15:59.985Z,33.15
2023-02-13T17:18:27.733Z,36.60
2023-02-13T17:20:55.411Z,35.80
2023-02-13T17:23:24.326Z,36.13
2023-02-13T17:25:52.730Z,36.28
2023-02-13T17:28:24.346Z,37.37
2023-02-13T17:30:52.584Z,48.22
2023-02-13T17:33:24.917Z,41.85
2023-02-13T17:35:52.832Z,36.28
2023-02-13T17:38:20.133Z,43.35
2023-02-13T17:40:47.787Z,37.28
2023-02-13T17:43:16.839Z,37.33
2023-02-13T17:45:44.192Z,50.72
2023-02-13T17:48:11.510Z,36.97
2023-02-13T17:50:38.863Z,39.63
2023-02-13T17:53:07.560Z,35.35
2023-02-13T17:55:37.970Z,36.97
2023-02-13T17:58:05.242Z,38.72
2023-02-13T18:00:35.341Z,46.50
2023-02-13T18:03:03.816Z,51.45
2023-02-13T18:05:33.077Z,46.30
2023-02-13T18:08:03.996Z,45.40
2023-02-13T18:10:32.627Z,42.55
2023-02-13T18:13:04.353Z,44.00
2023-02-13T18:15:32.653Z,45.05
2023-02-13T18:18:00.232Z,29.80
2023-02-13T18:20:27.454Z,38.13
2023-02-13T18:22:54.707Z,44.60
2023-02-13T18:25:23.616Z,38.20
2023-02-13T18:27:51.098Z,41.33
2023-02-13T18:30:19.612Z,40.53
2023-02-13T18:32:51.122Z,45.33
2023-02-13T18:35:19.121Z,42.45
2023-02-13T18:37:46.404Z,46.05
2023-02-13T18:40:15.101Z,50.45
2023-02-13T18:42:42.439Z,49.08
2023-02-13T18:45:10.072Z,50.65
2023-02-13T18:47:37.428Z,129.10
2023-02-13T18:50:05.319Z,56.10
2023-02-13T18:52:32.625Z,56.50
2023-02-13T18:55:00.072Z,62.30
2023-02-13T18:57:27.453Z,64.00
2023-02-13T18:59:54.713Z,57.45
2023-02-13T19:02:22.066Z,59.83
2023-02-13T19:04:49.402Z,52.22
2023-02-13T19:07:16.643Z,53.13
2023-02-13T19:09:44.435Z,54.42
2023-02-13T19:12:11.842Z,49.92
2023-02-13T19:14:39.634Z,44.78
2023-02-13T19:17:08.654Z,44.28
2023-02-13T19:19:35.938Z,47.38
2023-02-13T19:22:03.594Z,49.42
2023-02-13T19:24:30.947Z,48.20
2023-02-13T19:26:58.229Z,45.88
2023-02-13T19:29:25.509Z,46.65
2023-02-13T19:31:52.811Z,44.72
2023-02-13T19:34:20.060Z,44.15
2023-02-13T19:36:47.426Z,48.78
2023-02-13T19:39:14.620Z,42.80
2023-02-13T19:41:41.982Z,41.00
2023-02-13T19:44:09.247Z,44.67
2023-02-13T19:46:37.850Z,46.85
2023-02-13T19:49:05.626Z,43.05
2023-02-13T19:51:34.590Z,43.80
2023-02-13T19:54:03.527Z,43.65
2023-02-13T19:56:31.432Z,44.55
2023-02-13T19:58:58.743Z,44.35
2023-02-13T20:01:27.235Z,43.70
2023-02-13T20:03:57.528Z,42.97
2023-02-13T20:06:26.317Z,47.00
2023-02-13T20:08:53.747Z,49.00
2023-02-13T20:11:21.689Z,48.53
2023-02-13T20:13:49.417Z,50.78
2023-02-13T20:16:17.441Z,52.85
2023-02-13T20:18:44.985Z,43.40
2023-02-13T20:21:13.397Z,44.63
2023-02-13T20:23:41.016Z,45.00
2023-02-13T20:26:10.879Z,42.42
2023-02-13T20:28:38.740Z,45.50
2023-02-13T20:31:10.562Z,41.70
2023-02-13T20:33:38.873Z,50.00
2023-02-13T20:36:10.205Z,43.45
2023-02-13T20:38:37.607Z,47.92
2023-02-13T20:41:09.098Z,53.63
2023-02-13T20:43:37.428Z,51.03
2023-02-13T20:46:05.234Z,50.22
2023-02-13T20:48:32.710Z,44.25
2023-02-13T20:51:01.155Z,48.40
2023-02-13T20:53:29.546Z,48.25
2023-02-13T20:56:02.263Z,53.05
2023-02-13T20:58:29.494Z,45.22
2023-02-13T21:00:56.757Z,47.83
2023-02-13T21:03:24.057Z,48.92
2023-02-13T21:05:51.379Z,55.70
2023-02-13T21:08:18.734Z,51.17
2023-02-13T21:10:45.992Z,43.58
2023-02-13T21:13:13.280Z,53.47
2023-02-13T21:15:40.530Z,48.53
2023-02-13T21:18:07.795Z,50.42
2023-02-13T21:20:35.009Z,52.08
2023-02-13T21:23:02.997Z,49.17
2023-02-13T21:25:30.281Z,58.40
2023-02-13T21:27:57.638Z,55.25
2023-02-13T21:30:24.992Z,49.45
2023-02-13T21:32:52.273Z,47.80
2023-02-13T21:35:19.521Z,45.08
2023-02-13T21:37:46.781Z,48.53
2023-02-13T21:40:14.084Z,53.15
2023-02-13T21:42:41.327Z,56.35
2023-02-13T21:45:09.148Z,54.20
2023-02-13T21:47:37.939Z,53.90
2023-02-13T21:50:08.521Z,50.42
2023-02-13T21:52:36.261Z,53.00
2023-02-13T21:55:03.822Z,54.03
2023-02-13T21:57:31.092Z,52.78
2023-02-13T21:59:58.344Z,49.35
2023-02-13T22:02:27.044Z,51.67
2023-02-13T22:04:54.390Z,44.53
2023-02-13T22:07:21.714Z,49.10
2023-02-13T22:09:50.538Z,42.42
2023-02-13T22:12:17.839Z,44.97
2023-02-13T22:14:45.095Z,48.13
2023-02-13T22:17:12.362Z,55.13
2023-02-13T22:19:39.619Z,47.67
2023-02-13T22:22:07.082Z,51.92
2023-02-13T22:24:34.368Z,45.72
2023-02-13T22:27:03.030Z,56.45
2023-02-13T22:29:30.361Z,52.03
2023-02-13T22:31:57.725Z,47.58
2023-02-13T22:34:25.024Z,47.65
2023-02-13T22:36:52.300Z,50.63
2023-02-13T22:39:19.521Z,51.20
2023-02-13T22:41:46.861Z,52.50
2023-02-13T22:44:14.196Z,53.03
2023-02-13T22:46:41.565Z,51.72
2023-02-13T22:49:08.904Z,54.42
2023-02-13T22:51:37.081Z,52.30
2023-02-13T22:54:04.841Z,48.50
2023-02-13T22:56:32.903Z,55.63
2023-02-13T22:59:00.560Z,53.30
2023-02-13T23:01:28.528Z,52.35
2023-02-13T23:03:56.478Z,50.42
2023-02-13T23:06:24.014Z,51.83
2023-02-13T23:08:53.533Z,53.20
2023-02-13T23:11:40.885Z,56.10
2023-02-13T23:14:08.164Z,57.78
2023-02-13T23:16:54.499Z,55.75
2023-02-13T23:19:22.000Z,53.90
2023-02-13T23:21:49.596Z,56.53
2023-02-13T23:24:17.327Z,52.03
2023-02-13T23:26:45.766Z,52.85
2023-02-13T23:29:12.998Z,54.03
2023-02-13T23:31:40.419Z,50.33
2023-02-13T23:34:07.790Z,54.78
2023-02-13T23:36:35.189Z,57.97
2023-02-13T23:39:02.639Z,55.50
2023-02-13T23:41:29.971Z,53.90
2023-02-13T23:43:57.279Z,48.97
2023-02-13T23:46:24.568Z,52.72
2023-02-13T23:48:51.833Z,50.33
2023-02-13T23:51:20.928Z,46.03
2023-02-13T23:53:48.195Z,52.33
2023-02-13T23:56:15.600Z,56.33
2023-02-13T23:58:42.877Z,53.60
